createdAt,value
2023-07-19T00:01:34.371Z,2.10
2023-07-19T00:04:03.760Z,2.90
2023-07-19T00:06:31.873Z,3.07
2023-07-19T00:09:01.270Z,3.47
2023-07-19T00:11:30.400Z,3.78
2023-07-19T00:13:58.361Z,3.33
2023-07-19T00:16:29.285Z,2.90
2023-07-19T00:19:00.089Z,3.15
2023-07-19T00:21:34.593Z,3.72
2023-07-19T00:24:04.974Z,4.47
2023-07-19T00:26:32.928Z,4.22
2023-07-19T00:29:01.838Z,3.33
2023-07-19T00:31:29.806Z,3.67
2023-07-19T00:33:59.207Z,3.38
2023-07-19T00:36:27.421Z,2.92
2023-07-19T00:38:56.057Z,2.83
2023-07-19T00:41:26.317Z,4.50
2023-07-19T00:46:22.846Z,3.65
2023-07-19T00:48:51.446Z,4.00
2023-07-19T00:51:21.389Z,2.17
2023-07-19T00:53:51.249Z,4.15
2023-07-19T00:56:21.260Z,4.22
2023-07-19T00:58:52.312Z,3.58
2023-07-19T01:01:23.361Z,4.90
2023-07-19T01:03:52.385Z,4.70
2023-07-19T01:06:21.175Z,3.15
2023-07-19T01:08:51.187Z,5.30
2023-07-19T01:11:19.609Z,2.20
2023-07-19T01:13:56.517Z,4.05
2023-07-19T01:16:26.588Z,3.97
2023-07-19T01:18:54.700Z,4.18
2023-07-19T01:21:25.157Z,4.97
2023-07-19T01:23:56.977Z,4.60
2023-07-19T01:26:25.942Z,2.75
2023-07-19T01:28:57.469Z,4.68
2023-07-19T01:31:26.157Z,2.63
2023-07-19T01:33:54.138Z,3.83
2023-07-19T01:36:22.878Z,4.38
2023-07-19T01:38:51.594Z,4.90
2023-07-19T01:41:21.308Z,4.30
2023-07-19T01:43:49.935Z,5.65
2023-07-19T01:46:18.242Z,3.95
2023-07-19T01:48:47.221Z,4.45
2023-07-19T01:51:15.179Z,4.68
2023-07-19T01:53:43.292Z,5.28
2023-07-19T01:56:12.182Z,5.07
2023-07-19T01:58:41.698Z,6.05
2023-07-19T02:03:38.461Z,4.88
2023-07-19T02:06:07.000Z,5.75
2023-07-19T02:08:35.494Z,6.63
2023-07-19T02:11:03.546Z,4.90
2023-07-19T02:13:31.724Z,6.53
2023-07-19T02:16:01.323Z,4.68
2023-07-19T02:20:58.168Z,4.65
2023-07-19T02:23:26.235Z,5.57
2023-07-19T02:25:56.389Z,4.93
2023-07-19T02:28:24.385Z,7.28
2023-07-19T02:30:52.362Z,5.43
2023-07-19T02:33:22.925Z,4.82
2023-07-19T02:35:55.870Z,5.10
2023-07-19T02:38:24.746Z,5.55
2023-07-19T02:40:52.800Z,5.97
2023-07-19T02:43:21.316Z,4.28
2023-07-19T02:45:49.801Z,5.55
2023-07-19T02:48:17.931Z,3.92
2023-07-19T02:50:48.778Z,5.45
2023-07-19T02:53:18.456Z,4.50
2023-07-19T02:55:46.694Z,6.18
2023-07-19T02:58:16.838Z,4.72
2023-07-19T03:03:14.954Z,4.20
2023-07-19T03:05:47.617Z,4.45
2023-07-19T03:08:16.480Z,5.90
2023-07-19T03:10:44.847Z,5.22
2023-07-19T03:13:13.470Z,4.23
2023-07-19T03:15:47.725Z,4.70
2023-07-19T03:18:16.060Z,3.53
2023-07-19T03:20:45.288Z,3.97
2023-07-19T03:23:14.950Z,4.35
2023-07-19T03:28:11.422Z,5.30
2023-07-19T03:30:40.407Z,5.15
2023-07-19T03:33:09.336Z,3.70
2023-07-19T03:35:37.384Z,4.35
2023-07-19T03:38:05.822Z,3.55
2023-07-19T03:40:35.235Z,4.45
2023-07-19T03:43:04.475Z,3.80
2023-07-19T03:45:32.469Z,4.03
2023-07-19T03:48:00.947Z,4.88
2023-07-19T03:50:31.634Z,2.88
2023-07-19T03:52:59.599Z,3.80
2023-07-19T03:55:28.136Z,3.75
2023-07-19T03:57:58.799Z,5.50
2023-07-19T04:00:28.264Z,3.70
2023-07-19T04:02:57.113Z,4.85
2023-07-19T04:05:25.679Z,8.90
2023-07-19T04:07:55.690Z,7.63
2023-07-19T04:10:24.688Z,7.65
2023-07-19T04:12:52.630Z,7.47
2023-07-19T04:15:23.380Z,8.35
2023-07-19T04:17:51.480Z,6.05
2023-07-19T04:20:19.665Z,6.80
2023-07-19T04:22:48.153Z,4.95
2023-07-19T04:25:16.267Z,6.40
2023-07-19T04:27:44.272Z,6.00
2023-07-19T04:30:13.432Z,7.60
2023-07-19T04:32:43.765Z,5.97
2023-07-19T04:35:12.436Z,5.30
2023-07-19T04:37:41.229Z,6.38
2023-07-19T04:40:11.036Z,5.37
2023-07-19T04:42:41.219Z,6.72
2023-07-19T04:45:11.383Z,9.35
2023-07-19T04:47:40.021Z,6.13
2023-07-19T04:50:12.261Z,6.32
2023-07-19T04:52:40.926Z,5.65
2023-07-19T04:55:10.044Z,6.28
2023-07-19T04:57:39.896Z,5.45
2023-07-19T05:00:12.989Z,4.85
2023-07-19T05:02:42.251Z,6.03
2023-07-19T05:05:13.406Z,4.60
2023-07-19T05:07:42.786Z,4.80
2023-07-19T05:10:11.529Z,5.18
2023-07-19T05:12:40.842Z,4.97
2023-07-19T05:15:10.058Z,5.97
2023-07-19T05:17:38.518Z,4.43
2023-07-19T05:20:09.746Z,6.07
2023-07-19T05:22:39.850Z,6.75
2023-07-19T05:25:10.648Z,7.30
2023-07-19T05:27:38.641Z,6.65
2023-07-19T05:30:07.730Z,7.65
2023-07-19T05:32:35.847Z,7.63
2023-07-19T05:35:03.868Z,8.18
2023-07-19T05:37:32.270Z,7.88
2023-07-19T05:40:01.995Z,6.10
2023-07-19T05:42:29.973Z,5.72
2023-07-19T05:44:57.999Z,5.95
2023-07-19T05:47:28.713Z,6.70
2023-07-19T05:49:57.928Z,7.97
2023-07-19T05:52:28.871Z,10.50
2023-07-19T05:54:57.207Z,6.03
2023-07-19T05:57:26.598Z,5.93
2023-07-19T06:00:00.817Z,6.80
2023-07-19T06:02:53.343Z,5.32
2023-07-19T06:05:24.150Z,7.60
2023-07-19T06:07:53.340Z,4.43
2023-07-19T06:10:22.468Z,6.05
2023-07-19T06:12:53.240Z,4.95
2023-07-19T06:15:21.757Z,4.20
2023-07-19T06:17:50.191Z,5.65
2023-07-19T06:20:18.262Z,4.68
2023-07-19T06:22:47.474Z,5.82
2023-07-19T06:25:16.081Z,4.05
2023-07-19T06:27:44.728Z,5.25
2023-07-19T06:30:15.588Z,5.13
2023-07-19T06:32:44.128Z,6.05
2023-07-19T06:35:13.404Z,6.68
2023-07-19T06:37:42.011Z,5.95
2023-07-19T06:40:11.032Z,6.07
2023-07-19T06:42:39.752Z,4.40
2023-07-19T06:45:08.720Z,6.20
2023-07-19T06:47:39.093Z,5.55
2023-07-19T06:50:08.613Z,4.47
2023-07-19T06:52:37.080Z,4.38
2023-07-19T06:55:06.190Z,5.15
2023-07-19T06:57:34.753Z,6.45
2023-07-19T07:00:04.354Z,5.05
2023-07-19T07:02:32.396Z,8.23
2023-07-19T07:05:02.917Z,5.88
2023-07-19T07:07:30.886Z,6.07
2023-07-19T07:09:59.256Z,6.38
2023-07-19T07:12:28.202Z,6.87
2023-07-19T07:14:56.126Z,9.27
2023-07-19T07:17:24.712Z,6.65
2023-07-19T07:19:54.850Z,5.57
2023-07-19T07:22:24.420Z,6.88
2023-07-19T07:24:52.356Z,7.72
2023-07-19T07:27:20.568Z,7.50
2023-07-19T07:29:48.558Z,8.20
2023-07-19T07:32:16.583Z,7.68
2023-07-19T07:34:45.074Z,9.77
2023-07-19T07:37:13.218Z,5.20
2023-07-19T07:39:43.033Z,5.93
2023-07-19T07:44:39.707Z,6.65
2023-07-19T07:47:09.375Z,6.32
2023-07-19T07:49:37.373Z,7.85
2023-07-19T07:52:06.895Z,8.82
2023-07-19T07:54:35.065Z,6.95
2023-07-19T07:57:05.251Z,7.32
2023-07-19T08:02:04.475Z,5.68
2023-07-19T08:04:35.880Z,7.40
2023-07-19T08:07:03.950Z,6.75
2023-07-19T08:09:32.377Z,6.22
2023-07-19T08:12:00.798Z,6.88
2023-07-19T08:14:30.105Z,5.80
2023-07-19T08:19:30.726Z,6.90
2023-07-19T08:22:07.596Z,5.43
2023-07-19T08:24:36.000Z,6.38
2023-07-19T08:27:04.195Z,7.50
2023-07-19T08:29:34.413Z,6.95
2023-07-19T08:34:30.740Z,8.20
2023-07-19T08:36:58.748Z,6.45
2023-07-19T08:39:28.772Z,6.60
2023-07-19T08:41:56.771Z,5.63
2023-07-19T08:44:25.224Z,6.00
2023-07-19T08:46:54.818Z,5.30
2023-07-19T08:49:23.911Z,5.93
2023-07-19T08:51:52.173Z,6.22
2023-07-19T08:54:20.197Z,8.60
2023-07-19T08:56:48.704Z,4.82
2023-07-19T08:59:16.676Z,5.85
2023-07-19T09:01:45.295Z,6.88
2023-07-19T09:04:15.773Z,7.90
2023-07-19T09:06:45.363Z,6.55
2023-07-19T09:09:15.254Z,7.00
2023-07-19T09:11:45.055Z,8.20
2023-07-19T09:14:13.059Z,6.47
2023-07-19T09:16:41.521Z,8.52
2023-07-19T09:19:10.933Z,6.20
2023-07-19T09:21:43.278Z,8.50
2023-07-19T09:24:13.044Z,6.97
2023-07-19T09:26:50.766Z,5.90
2023-07-19T09:29:20.168Z,7.43
2023-07-19T09:31:55.840Z,7.00
2023-07-19T09:34:24.948Z,7.15
2023-07-19T09:36:54.912Z,8.48
2023-07-19T09:39:24.191Z,7.85
2023-07-19T09:41:53.752Z,4.60
2023-07-19T09:44:23.322Z,8.63
2023-07-19T09:46:51.967Z,7.47
2023-07-19T09:49:19.918Z,3.90
2023-07-19T09:51:51.112Z,6.82
2023-07-19T09:54:20.536Z,7.45
2023-07-19T09:56:48.508Z,4.82
2023-07-19T09:59:21.037Z,5.60
2023-07-19T10:01:50.660Z,5.35
2023-07-19T10:04:26.488Z,9.50
2023-07-19T10:07:08.753Z,5.90
2023-07-19T10:09:43.494Z,6.75
2023-07-19T10:12:26.501Z,7.13
2023-07-19T10:14:58.689Z,6.47
2023-07-19T10:17:26.956Z,7.35
2023-07-19T10:20:09.574Z,6.50
2023-07-19T10:22:54.012Z,3.47
2023-07-19T10:25:28.721Z,5.60
2023-07-19T10:28:02.291Z,5.40
2023-07-19T10:30:55.927Z,5.57
2023-07-19T10:33:25.887Z,5.05
2023-07-19T10:35:55.928Z,4.78
2023-07-19T10:38:25.332Z,4.45
2023-07-19T10:41:02.149Z,6.18
2023-07-19T10:43:46.925Z,3.42
2023-07-19T10:46:20.189Z,4.57
2023-07-19T10:48:52.012Z,3.78
2023-07-19T10:51:21.448Z,7.88
2023-07-19T10:53:58.904Z,2.70
2023-07-19T10:56:29.875Z,2.67
2023-07-19T10:59:02.553Z,4.80
2023-07-19T11:01:32.258Z,2.97
2023-07-19T11:04:06.518Z,4.03
2023-07-19T11:06:34.889Z,4.45
2023-07-19T11:09:07.950Z,5.90
2023-07-19T11:11:41.794Z,3.72
2023-07-19T11:14:09.779Z,2.92
2023-07-19T11:16:38.920Z,3.33
2023-07-19T11:19:06.937Z,4.77
2023-07-19T11:21:35.712Z,5.50
2023-07-19T11:24:04.251Z,3.35
2023-07-19T11:26:32.357Z,3.40
2023-07-19T11:29:02.245Z,4.28
2023-07-19T11:31:32.918Z,4.95
2023-07-19T11:34:08.875Z,3.60
2023-07-19T11:36:40.995Z,2.55
2023-07-19T11:39:15.815Z,5.07
2023-07-19T11:41:43.897Z,5.22
2023-07-19T11:44:17.500Z,3.72
2023-07-19T11:46:45.461Z,5.28
2023-07-19T11:49:14.562Z,3.83
2023-07-19T11:51:43.145Z,3.53
2023-07-19T11:54:12.129Z,4.93
2023-07-19T11:56:40.112Z,4.07
2023-07-19T11:59:08.118Z,3.22
2023-07-19T12:01:38.504Z,4.65
2023-07-19T12:04:06.561Z,4.63
2023-07-19T12:06:35.526Z,4.05
2023-07-19T12:09:04.159Z,4.20
2023-07-19T12:11:32.171Z,6.93
2023-07-19T12:14:01.462Z,3.38
2023-07-19T12:16:29.965Z,5.03
2023-07-19T12:18:59.804Z,5.22
2023-07-19T12:21:28.479Z,6.47
2023-07-19T12:23:59.598Z,4.23
2023-07-19T12:28:59.842Z,4.82
2023-07-19T12:31:27.947Z,3.25
2023-07-19T12:33:57.968Z,3.23
2023-07-19T12:36:28.212Z,4.78
2023-07-19T12:38:57.665Z,5.38
2023-07-19T12:41:26.180Z,4.45
2023-07-19T12:43:54.158Z,3.15
2023-07-19T12:46:23.854Z,4.03
2023-07-19T12:48:52.248Z,6.28
2023-07-19T12:51:21.622Z,5.10
2023-07-19T12:53:51.486Z,5.35
2023-07-19T12:56:19.678Z,5.50
2023-07-19T12:58:48.302Z,4.07
2023-07-19T13:01:16.449Z,4.50
2023-07-19T13:03:45.433Z,3.80
2023-07-19T13:06:14.017Z,3.65
2023-07-19T13:08:42.177Z,3.50
2023-07-19T13:11:12.587Z,2.88
2023-07-19T13:13:41.071Z,5.90
2023-07-19T13:16:09.018Z,3.65
2023-07-19T13:18:37.973Z,3.88
2023-07-19T13:21:06.557Z,2.45
2023-07-19T13:23:34.726Z,2.38
2023-07-19T13:26:02.736Z,3.20
2023-07-19T13:28:32.640Z,3.25
2023-07-19T13:31:01.332Z,4.50
2023-07-19T13:33:30.718Z,6.25
2023-07-19T13:35:59.178Z,6.28
2023-07-19T13:38:28.763Z,4.13
2023-07-19T13:40:57.801Z,2.97
2023-07-19T13:43:25.761Z,3.05
2023-07-19T13:45:55.650Z,3.40
2023-07-19T13:48:24.593Z,3.67
2023-07-19T13:50:52.655Z,4.55
2023-07-19T13:53:21.424Z,3.90
2023-07-19T13:55:49.989Z,3.15
2023-07-19T13:58:18.029Z,4.73
2023-07-19T14:00:46.529Z,2.78
2023-07-19T14:03:17.928Z,5.00
2023-07-19T14:05:45.912Z,4.97
2023-07-19T14:08:15.395Z,3.92
2023-07-19T14:10:44.015Z,4.20
2023-07-19T14:16:04.751Z,3.15
2023-07-19T14:18:36.147Z,3.58
2023-07-19T14:21:10.117Z,4.13
2023-07-19T14:23:39.913Z,3.08
2023-07-19T14:26:07.902Z,4.63
2023-07-19T14:28:36.861Z,5.25
2023-07-19T14:31:05.506Z,2.92
2023-07-19T14:33:35.073Z,5.20
2023-07-19T14:36:04.871Z,3.60
2023-07-19T14:38:34.922Z,5.18
2023-07-19T14:41:03.650Z,3.30
2023-07-19T14:43:32.216Z,3.90
2023-07-19T14:46:00.288Z,5.43
2023-07-19T14:48:29.225Z,2.87
2023-07-19T14:50:58.641Z,4.45
2023-07-19T14:53:27.717Z,3.47
2023-07-19T14:55:56.569Z,4.77
2023-07-19T14:58:24.658Z,4.03
2023-07-19T15:00:56.499Z,3.20
2023-07-19T15:05:58.299Z,2.20
2023-07-19T15:08:27.312Z,3.25
2023-07-19T15:10:57.016Z,3.92
2023-07-19T15:13:25.728Z,3.30
2023-07-19T15:15:56.159Z,3.55
2023-07-19T15:18:28.172Z,3.20
2023-07-19T15:20:58.071Z,2.92
2023-07-19T15:23:27.218Z,3.70
2023-07-19T15:25:55.496Z,2.97
2023-07-19T15:28:29.820Z,2.53
2023-07-19T15:30:59.636Z,2.85
2023-07-19T15:33:27.831Z,1.97
2023-07-19T15:35:59.998Z,3.97
2023-07-19T15:38:41.244Z,1.95
2023-07-19T15:41:09.625Z,3.33
2023-07-19T15:43:38.499Z,3.58
2023-07-19T15:46:07.478Z,3.37
2023-07-19T15:48:37.736Z,3.65
2023-07-19T15:51:06.535Z,2.55
2023-07-19T15:53:37.411Z,2.92
2023-07-19T15:56:09.143Z,3.03
2023-07-19T15:58:37.327Z,2.53
2023-07-19T16:01:07.483Z,5.10
2023-07-19T16:03:37.167Z,2.58
2023-07-19T16:06:07.944Z,3.15
2023-07-19T16:08:38.335Z,2.35
2023-07-19T16:13:36.755Z,2.78
2023-07-19T16:16:05.524Z,3.30
2023-07-19T16:18:34.980Z,4.78
2023-07-19T16:21:03.679Z,4.72
2023-07-19T16:23:32.628Z,4.18
2023-07-19T16:26:00.632Z,5.95
2023-07-19T16:28:30.620Z,6.57
2023-07-19T16:30:58.722Z,10.40
2023-07-19T16:33:27.951Z,4.35
2023-07-19T16:35:55.966Z,5.97
2023-07-19T16:38:24.913Z,5.53
2023-07-19T16:40:52.900Z,5.35
2023-07-19T16:43:24.799Z,6.82
2023-07-19T16:45:55.716Z,6.50
2023-07-19T16:50:52.026Z,7.95
2023-07-19T16:53:21.804Z,6.78
2023-07-19T16:58:18.553Z,5.18
2023-07-19T17:00:47.013Z,6.85
2023-07-19T17:03:16.937Z,6.78
2023-07-19T17:05:45.864Z,5.47
2023-07-19T17:08:14.387Z,6.57
2023-07-19T17:10:43.392Z,9.10
2023-07-19T17:13:11.890Z,4.38
2023-07-19T17:15:40.158Z,6.47
2023-07-19T17:18:10.094Z,4.88
2023-07-19T17:20:41.326Z,6.10
2023-07-19T17:23:24.780Z,6.40
2023-07-19T17:26:22.790Z,5.47
2023-07-19T17:28:51.856Z,6.10
2023-07-19T17:31:21.210Z,6.22
2023-07-19T17:33:52.349Z,5.70
2023-07-19T17:36:22.587Z,7.97
2023-07-19T17:38:50.961Z,6.45
2023-07-19T17:41:20.192Z,8.18
2023-07-19T17:43:49.640Z,8.55
2023-07-19T17:46:20.730Z,6.25
2023-07-19T17:48:52.489Z,7.45
2023-07-19T17:51:23.084Z,5.00
2023-07-19T17:53:51.647Z,6.88
2023-07-19T17:56:19.777Z,7.63
2023-07-19T17:58:47.822Z,7.22
2023-07-19T18:01:17.181Z,6.40
2023-07-19T18:03:45.516Z,9.18
2023-07-19T18:06:13.620Z,7.13
2023-07-19T18:08:43.031Z,6.25
2023-07-19T18:11:11.129Z,7.70
2023-07-19T18:13:39.580Z,4.60
2023-07-19T18:16:08.007Z,7.63
2023-07-19T18:18:35.977Z,5.30
2023-07-19T18:21:04.171Z,6.30
2023-07-19T18:23:32.889Z,6.25
2023-07-19T18:26:02.278Z,4.05
2023-07-19T18:28:30.697Z,5.25
2023-07-19T18:30:58.819Z,6.00
2023-07-19T18:33:27.363Z,4.15
2023-07-19T18:35:55.352Z,6.40
2023-07-19T18:38:23.879Z,5.72
2023-07-19T18:40:52.048Z,5.80
2023-07-19T18:43:21.429Z,5.95
2023-07-19T18:48:18.506Z,7.45
2023-07-19T18:50:46.997Z,5.27
2023-07-19T18:53:16.109Z,7.90
2023-07-19T18:55:44.444Z,7.15
2023-07-19T18:58:13.153Z,9.73
2023-07-19T19:00:42.666Z,10.85
2023-07-19T19:03:11.360Z,10.10
2023-07-19T19:05:42.181Z,10.77
2023-07-19T19:08:10.316Z,11.35
2023-07-19T19:10:39.206Z,14.70
2023-07-19T19:13:07.272Z,12.50
2023-07-19T19:15:36.129Z,12.60
2023-07-19T19:18:05.601Z,14.93
2023-07-19T19:20:33.730Z,15.32
2023-07-19T19:23:03.069Z,16.27
2023-07-19T19:25:33.081Z,14.60
2023-07-19T19:28:02.275Z,16.42
2023-07-19T19:30:31.506Z,16.17
2023-07-19T19:33:00.302Z,13.65
2023-07-19T19:35:29.773Z,13.55
2023-07-19T19:37:57.734Z,14.30
2023-07-19T19:40:26.321Z,11.70
2023-07-19T19:42:54.380Z,9.82
2023-07-19T19:45:23.457Z,7.78
2023-07-19T19:47:51.486Z,8.48
2023-07-19T19:50:19.448Z,10.00
2023-07-19T19:52:59.264Z,10.55
2023-07-19T19:58:08.507Z,10.65
2023-07-19T20:00:36.502Z,11.63
2023-07-19T20:08:08.967Z,15.73
2023-07-19T20:13:06.778Z,13.07
2023-07-19T20:15:47.838Z,13.32
2023-07-19T20:20:47.957Z,12.77
2023-07-19T20:23:17.400Z,12.55
2023-07-19T20:26:01.111Z,12.73
2023-07-19T20:28:34.627Z,13.13
2023-07-19T20:31:06.414Z,11.02
2023-07-19T20:33:35.835Z,9.75
2023-07-19T20:36:05.669Z,9.60
2023-07-19T20:43:39.024Z,9.68
2023-07-19T20:46:07.588Z,8.25
2023-07-19T20:48:38.415Z,8.02
2023-07-19T20:51:11.360Z,9.18
2023-07-19T20:53:41.141Z,8.52
2023-07-19T20:56:10.086Z,7.72
2023-07-19T20:58:38.755Z,7.20
2023-07-19T21:01:07.350Z,10.13
2023-07-19T21:03:35.875Z,6.45
2023-07-19T21:06:03.907Z,6.75
2023-07-19T21:08:31.998Z,8.57
2023-07-19T21:11:01.509Z,10.13
2023-07-19T21:15:58.477Z,7.18
2023-07-19T21:18:26.481Z,6.20
2023-07-19T21:20:55.009Z,6.28
2023-07-19T21:23:23.331Z,7.13
2023-07-19T21:25:51.270Z,7.53
2023-07-19T21:28:21.301Z,9.85
2023-07-19T21:30:49.852Z,10.25
2023-07-19T21:33:18.378Z,8.27
2023-07-19T21:35:46.312Z,8.32
2023-07-19T21:38:14.960Z,8.30
2023-07-19T21:40:44.085Z,7.32
2023-07-19T21:43:12.089Z,6.60
2023-07-19T21:45:42.953Z,7.03
2023-07-19T21:48:11.040Z,8.35
2023-07-19T21:50:43.594Z,7.68
2023-07-19T21:53:13.067Z,7.75
2023-07-19T21:55:42.147Z,8.10
2023-07-19T21:58:11.133Z,6.97
2023-07-19T22:00:41.592Z,7.93
2023-07-19T22:03:13.189Z,7.18
2023-07-19T22:05:42.382Z,7.03
2023-07-19T22:08:10.625Z,7.95
2023-07-19T22:10:39.130Z,7.75
2023-07-19T22:13:08.505Z,8.05
2023-07-19T22:15:37.128Z,7.35
2023-07-19T22:18:18.272Z,7.70
2023-07-19T22:20:49.012Z,9.48
2023-07-19T22:23:17.364Z,9.95
2023-07-19T22:25:46.270Z,8.63
2023-07-19T22:28:15.792Z,7.43
2023-07-19T22:30:44.951Z,8.02
2023-07-19T22:33:15.443Z,5.85
2023-07-19T22:35:43.485Z,4.68
2023-07-19T22:38:11.501Z,4.70
2023-07-19T22:40:40.713Z,5.22
2023-07-19T22:43:08.721Z,5.20
2023-07-19T22:45:37.188Z,4.45
2023-07-19T22:48:08.461Z,3.38
2023-07-19T22:50:38.962Z,4.40
2023-07-19T22:53:07.022Z,4.82
2023-07-19T22:55:35.461Z,5.05
2023-07-19T22:58:04.343Z,5.03
2023-07-19T23:00:32.659Z,6.82
2023-07-19T23:03:01.296Z,7.15
2023-07-19T23:05:29.446Z,5.90
2023-07-19T23:07:59.374Z,5.95
2023-07-19T23:10:27.809Z,6.13
2023-07-19T23:12:55.771Z,7.93
2023-07-19T23:15:24.511Z,7.55
2023-07-19T23:17:53.820Z,8.68
2023-07-19T23:20:23.023Z,9.60
2023-07-19T23:22:51.161Z,8.70
2023-07-19T23:25:20.749Z,10.35
2023-07-19T23:27:49.607Z,6.55
2023-07-19T23:30:17.905Z,8.52
2023-07-19T23:32:46.419Z,6.78
2023-07-19T23:35:14.453Z,9.43
2023-07-19T23:37:42.938Z,7.18
2023-07-19T23:40:12.140Z,7.88
2023-07-19T23:42:41.492Z,5.70
2023-07-19T23:47:38.983Z,7.43
2023-07-19T23:50:08.662Z,6.38
2023-07-19T23:52:37.251Z,7.50
2023-07-19T23:55:06.300Z,5.47
2023-07-19T23:57:34.950Z,5.97
